Nearby METAR Reports

 

KPDX - Portland, Oregon, USA
Distance from station: NE 9mi, 14km
Updated: Sat, 04-Apr-2020 3:53am PDT
Mostly cloudy
Mostly cloudy
 Wind from ESE
Wind: ESE 5 mph , 7 km/h
Temperature: 41°F , 5°C
Wind Chill: 38°F , 3°C
Dew Point: 37°F , 3°C
Humidity: 87%
Barometer: 29.91 inHg , 1012.9 hPa
Clouds: Mostly cloudy
Visibility: 10 miles , 16 km
Cloud details: Partly cloudy 4500 ft
Mostly cloudy 6500 ft
2020/04/04 10:53 KPDX 041053Z 11004KT 10SM SCT045 BKN065 05/03 A2991 RMK AO2 SLP128 T00500033
KTMK - Tillamook, Oregon, USA
Distance from station: N 9mi, 14km
Updated: Sat, 04-Apr-2020 3:55am PDT
Clear
Clear
 Wind from calm
Wind: Calm
Temperature: 32°F , 0°C
Dew Point: 32°F , 0°C
Humidity: 100%
Barometer: 29.92 inHg , 1013.2 hPa
Clouds: Clear
Visibility: 10 miles , 16 km
2020/04/04 10:55 KTMK 041055Z AUTO 00000KT 10SM CLR 00/00 A2992 RMK AO2
 
KSLE - Salem, Oregon, USA
Distance from station: NNW 14mi, 23km
Updated: Sat, 04-Apr-2020 3:56am PDT
Overcast
Overcast
 Wind from calm
Wind: Calm
Temperature: 39°F , 4°C
Dew Point: 36°F , 2°C
Humidity: 87%
Barometer: 29.89 inHg , 1012.2 hPa
Clouds: Overcast
Visibility: 10 miles , 16 km
Cloud details: Few Clouds 1600 ft
Overcast 3000 ft
2020/04/04 10:56 KSLE 041056Z AUTO 00000KT 10SM FEW016 OVC030 04/02 A2989 RMK AO2 SLP121 T00390022
KEUG - Eugene, Oregon, USA
Distance from station: ENE 12mi, 19km
Updated: Sat, 04-Apr-2020 3:54am PDT
Mostly cloudy
Mostly cloudy
 Wind from N
Wind: N 5 mph , 7 km/h
Temperature: 37°F , 3°C
Wind Chill: 33°F , 1°C
Dew Point: 36°F , 2°C
Humidity: 93%
Barometer: 29.89 inHg , 1012.2 hPa
Clouds: Mostly cloudy
Visibility: 10 miles , 16 km
Cloud details: Mostly cloudy 5000 ft
2020/04/04 10:54 KEUG 041054Z AUTO 35004KT 10SM BKN050 03/02 A2989 RMK AO2 SLP122 T00330022 $
 
KONP - Newport, Oregon, USA
Distance from station: NNW 31mi, 50km
Updated: Sat, 04-Apr-2020 3:55am PDT
Clear
Clear
 Wind from E
Wind: E 5 mph , 7 km/h
Temperature: 34°F , 1°C
Wind Chill: 29°F , -2°C
Dew Point: 32°F , 0°C
Humidity: 93%
Barometer: 29.92 inHg , 1013.2 hPa
Clouds: Clear
Visibility: 10 miles , 16 km
2020/04/04 10:55 KONP 041055Z AUTO 08004KT 10SM CLR 01/00 A2992 RMK AO2
K6S2 - Florence, Oregon, USA
Distance from station: NW 21mi, 34km
Updated: Sat, 04-Apr-2020 3:55am PDT
Clear
Clear
 Wind from calm
Wind: Calm
Temperature: 36°F , 2°C
Dew Point: 34°F , 1°C
Humidity: 93%
Barometer: 29.88 inHg , 1011.9 hPa
Clouds: Clear
Visibility: 10 miles , 16 km
2020/04/04 10:55 K6S2 041055Z AUTO 00000KT 10SM CLR 02/01 A2988 RMK AO2 T00150012
 
KDLS - The Dalles, Oregon, USA
Distance from station: NW 30mi, 49km
Updated: Sat, 04-Apr-2020 3:53am PDT
Overcast
Overcast
 Wind from E
Wind: E 5 mph , 7 km/h
Temperature: 39°F , 4°C
Wind Chill: 35°F , 2°C
Dew Point: 34°F , 1°C
Humidity: 81%
Barometer: 29.92 inHg , 1013.2 hPa
Clouds: Overcast
Visibility: 10 miles , 16 km
Cloud details: Partly cloudy 4600 ft
Overcast 7000 ft
2020/04/04 10:53 KDLS 041053Z AUTO 08004KT 10SM SCT046 OVC070 04/01 A2992 RMK AO2 SLP132 T00390006
KRDM - Redmond, Oregon, USA
Distance from station: ESE 27mi, 43km
Updated: Sat, 04-Apr-2020 3:56am PDT
Clear
Clear
 Wind from SSE
Wind: SSE 6 mph , 9 km/h
Temperature: 21°F , -6°C
Wind Chill: 13°F , -11°C
Dew Point: 16°F , -9°C
Humidity: 80%
Barometer: 29.83 inHg , 1010.2 hPa
Clouds: Clear
Visibility: 10 miles , 16 km
2020/04/04 10:56 KRDM 041056Z AUTO 16005KT 10SM CLR M06/M09 A2983 RMK AO2 SLP117 T10561089
 
KPDT - Pendleton, Oregon, USA
Distance from station: SSE 27mi, 44km
Updated: Sat, 04-Apr-2020 3:53am PDT
Overcast
Overcast
 Wind from E
Wind: E 3 mph , 6 km/h
Temperature: 36°F , 2°C
Dew Point: 28°F , -2°C
Humidity: 75%
Barometer: 29.89 inHg , 1012.2 hPa
Clouds: Overcast
Visibility: 10 miles , 16 km
Cloud details: Overcast 6000 ft
2020/04/04 10:53 KPDT 041053Z AUTO 10003KT 10SM OVC060 02/M02 A2989 RMK AO2 SLP120 T00221022
KGCD - John Day, Oregon, USA
Distance from station: WNW 31mi, 50km
Updated: Sat, 04-Apr-2020 3:55am PDT
Clear
Clear
 Wind from E
Wind: E 5 mph , 7 km/h
Temperature: 28°F , -2°C
Wind Chill: 22°F , -6°C
Dew Point: 23°F , -5°C
Humidity: 80%
Barometer: 29.84 inHg , 1010.5 hPa
Clouds: Clear
Visibility: 10 miles , 16 km
2020/04/04 10:55 KGCD 041055Z AUTO 09004KT 10SM CLR M02/M05 A2984 RMK AO2 T10171048
 
KAST - Astoria, Oregon, USA
Distance from station: N 28mi, 44km
Updated: Sat, 04-Apr-2020 3:55am PDT
Clear
Clear
 Wind from SE
Wind: SE 3 mph , 6 km/h
Temperature: 34°F , 1°C
Dew Point: 30°F , -1°C
Humidity: 87%
Barometer: 29.91 inHg , 1012.9 hPa
Clouds: Clear
Visibility: 10 miles , 16 km
2020/04/04 10:55 KAST 041055Z AUTO 13003KT 10SM CLR 01/M01 A2991 RMK AO2 SLP128 T00061011
KSEA - Seattle, Washington, USA
Distance from station: NNE 31mi, 51km
Updated: Sat, 04-Apr-2020 3:53am PDT
Mostly cloudy
Mostly cloudy
 Wind from SE
Wind: SE 5 mph , 7 km/h
Temperature: 37°F , 3°C
Wind Chill: 33°F , 1°C
Dew Point: 30°F , -1°C
Humidity: 75%
Barometer: 29.92 inHg , 1013.2 hPa
Clouds: Mostly cloudy
Visibility: 10 miles , 16 km
Cloud details: Partly cloudy 5500 ft
Mostly cloudy 20000 ft
2020/04/04 10:53 KSEA 041053Z 13004KT 10SM SCT055 BKN200 03/M01 A2992 RMK AO2 SLP139 T00281006